NCAR-RAP Real-Time Weather Data

Output produced by METARs form (17 October 2018  16:22 UTC)
found at http://weather.rap.ucar.edu/surface/
 
RJTT 171600Z 02012KT 9999 FEW015 SCT/// 17/14 Q1014 NOSIG RMK 1CU015 A2995
 
RJAA 171600Z 33005KT 9999 FEW020 SCT/// 14/13 Q1014 NOSIG RMK 1CU020 A2994
 
 
RJAH 171600Z 36004KT 9999 FEW030 SCT100 BKN/// 12/11 Q1014
 
RJGG 171600Z 35011KT 9999 FEW030 17/12 Q1012 NOSIG
 
RJNK 171600Z 09003KT 9999 FEW030 12/09 Q1014
 
RJNT 171200Z 20003KT 170V240 9999 FEW025 SCT/// 14/12 Q1014
 
 
 
 
 
 
 
 
 
 
 
 
RJTT 171600Z 02012KT 9999 FEW015 SCT/// 17/14 Q1014 NOSIG RMK 1CU015 A2995
 
 
RJTY 171456Z 00000KT 10SM BKN036 BKN065 16/12 A3000 RMK AO2 SLP159 T01570115 402160147 58001 FZRANO $